Time;durP1;ratioP1;P1;durP2;ratioP2;P2;SDS_P1;SDS_P2;PMS_P1;PMS_P2;Temp;Humidity;BMP_temperature;BMP_pressure;BME280_temperature;BME280_humidity;BME280_pressure;Samples;Min_cycle;Max_cycle;Signal;HPM_P1;HPM_P2
2024/04/02 00:00:32;;;;;;;;;;;;;;;16.01;45.98;100053.03;5038339;28;1158;-50
2024/04/02 00:02:57;;;;;;;;;;;;;;;15.96;45.49;100052.53;5038624;28;1163;-53
2024/04/02 00:05:23;;;;;;;;;;;;;;;15.86;45.54;100060.41;5038085;28;1236;-53
2024/04/02 00:07:48;;;;;;;;;;;;;;;15.82;45.12;100054.50;5037992;28;1048;-54
2024/04/02 00:10:14;;;;;;;;;;;;;;;16.94;46.40;100052.44;5038145;28;1143;-51
2024/04/02 00:12:40;;;;;;;;;;;;;;;16.62;47.47;100056.88;5037795;28;1040;-53
2024/04/02 00:15:05;;;;;;;;;;;;;;;16.34;47.09;100058.34;5037736;28;1921;-51
2024/04/02 00:17:31;;;;;;;;;;;;;;;16.14;46.49;100058.19;5037740;28;1086;-53
2024/04/02 00:19:57;;;;;;;;;;;;;;;16.18;46.81;100054.31;5037296;28;1063;-51
2024/04/02 00:22:22;;;;;;;;;;;;;;;16.95;47.14;100047.97;5037973;28;1068;-53
2024/04/02 00:24:48;;;;;;;;;;;;;;;16.38;47.29;100052.63;5037332;28;1040;-52
2024/04/02 00:27:13;;;;;;;;;;;;;;;16.23;46.48;100053.94;5037957;28;1061;-50
2024/04/02 00:29:39;;;;;;;;;;;;;;;16.09;45.93;100052.41;5036869;28;1142;-48
2024/04/02 00:32:04;;;;;;;;;;;;;;;17.29;47.04;100054.84;5037691;28;1114;-53
2024/04/02 00:34:30;;;;;;;;;;;;;;;16.46;47.41;100054.66;5037584;28;1977;-52
2024/04/02 00:36:55;;;;;;;;;;;;;;;16.25;46.32;100051.97;5037366;28;1087;-51
2024/04/02 00:39:21;;;;;;;;;;;;;;;16.13;45.54;100048.53;5036763;28;1135;-54
2024/04/02 00:41:46;;;;;;;;;;;;;;;16.95;46.66;100043.50;5037469;28;1139;-49
2024/04/02 00:44:12;;;;;;;;;;;;;;;16.38;46.99;100043.84;5037444;28;1291;-48
2024/04/02 00:46:37;;;;;;;;;;;;;;;16.19;46.67;100040.06;5037247;28;1175;-52
2024/04/02 00:49:03;;;;;;;;;;;;;;;16.02;46.24;100033.50;5037099;28;1076;-47
2024/04/02 00:51:28;;;;;;;;;;;;;;;16.01;45.85;100022.06;5037439;28;1051;-49
2024/04/02 00:53:54;;;;;;;;;;;;;;;16.96;46.43;100023.09;5036686;28;1977;-53
2024/04/02 00:56:19;;;;;;;;;;;;;;;16.31;46.92;100032.91;5036927;28;1051;-49
2024/04/02 00:58:45;;;;;;;;;;;;;;;16.16;46.19;100017.25;5036955;28;1087;-52
2024/04/02 01:01:11;;;;;;;;;;;;;;;15.94;45.98;100026.13;5052085;28;1128;-51
2024/04/02 01:03:36;;;;;;;;;;;;;;;16.94;46.29;100020.56;5019338;28;1092;-50
2024/04/02 01:06:02;;;;;;;;;;;;;;;16.25;47.14;100017.47;5037165;28;1076;-53
2024/04/02 01:08:27;;;;;;;;;;;;;;;16.40;47.38;100018.84;5019295;28;1410;-50
2024/04/02 01:10:54;;;;;;;;;;;;;;;16.77;47.27;100016.69;5018835;28;897;-49
2024/04/02 01:13:20;;;;;;;;;;;;;;;16.23;47.46;100017.59;5018994;28;1906;-51
2024/04/02 01:15:45;;;;;;;;;;;;;;;16.11;46.99;100010.69;5036734;28;1111;-51
2024/04/02 01:18:11;;;;;;;;;;;;;;;16.12;46.53;100015.84;5036358;28;1150;-52
2024/04/02 01:20:36;;;;;;;;;;;;;;;16.02;45.96;100012.25;5036281;28;1251;-47
2024/04/02 01:23:02;;;;;;;;;;;;;;;16.77;46.61;100014.03;5019378;28;1158;-47
2024/04/02 01:25:27;;;;;;;;;;;;;;;16.40;46.71;100010.03;5036864;28;1072;-49
2024/04/02 01:27:53;;;;;;;;;;;;;;;16.11;46.61;100013.31;5036769;28;1103;-54
2024/04/02 01:30:18;;;;;;;;;;;;;;;17.31;46.44;100005.06;5036413;28;1087;-55
2024/04/02 01:32:44;;;;;;;;;;;;;;;16.48;47.29;100004.09;5036432;28;1119;-52
2024/04/02 01:35:13;;;;;;;;;;;;;;;16.22;46.91;100000.00;5036578;28;1917;-53
2024/04/02 01:37:39;;;;;;;;;;;;;;;16.09;46.21;99999.34;5036740;28;1063;-52
2024/04/02 01:40:05;;;;;;;;;;;;;;;17.06;47.08;99996.56;5036424;28;1252;-54
2024/04/02 01:42:30;;;;;;;;;;;;;;;16.82;47.35;100005.66;5035940;28;1068;-55
2024/04/02 01:44:57;;;;;;;;;;;;;;;16.37;47.30;100007.66;5036322;28;1202;-53
2024/04/02 01:47:22;;;;;;;;;;;;;;;16.14;46.74;100013.91;5036426;28;1009;-54
2024/04/02 01:49:48;;;;;;;;;;;;;;;16.60;47.43;100007.53;5036254;28;1040;-49
2024/04/02 01:52:13;;;;;;;;;;;;;;;16.80;47.31;100015.59;5035319;28;1020;-52
2024/04/02 01:54:39;;;;;;;;;;;;;;;16.32;47.32;100016.00;5035843;28;1910;-53
2024/04/02 01:57:04;;;;;;;;;;;;;;;16.17;46.44;100007.50;5036321;28;1439;-48
2024/04/02 01:59:30;;;;;;;;;;;;;;;16.11;45.95;100019.50;5036225;28;1197;-50
2024/04/02 02:01:55;;;;;;;;;;;;;;;16.04;45.70;100026.25;5036084;28;1132;-50
2024/04/02 02:04:21;;;;;;;;;;;;;;;16.35;46.04;100021.03;5036081;28;1067;-50
2024/04/02 02:06:46;;;;;;;;;;;;;;;16.92;46.76;100025.16;5035957;28;1076;-47
2024/04/02 02:09:12;;;;;;;;;;;;;;;16.25;47.07;100020.97;5036181;28;1096;-50
2024/04/02 02:11:38;;;;;;;;;;;;;;;16.19;46.63;100028.59;5036134;28;1175;-50
2024/04/02 02:14:04;;;;;;;;;;;;;;;16.96;47.34;100023.09;5035641;28;1978;-50
2024/04/02 02:16:29;;;;;;;;;;;;;;;16.52;47.27;100024.09;5035915;28;1083;-47
2024/04/02 02:18:55;;;;;;;;;;;;;;;16.21;47.03;100022.22;5035712;28;1168;-52
2024/04/02 02:21:21;;;;;;;;;;;;;;;16.09;46.41;100017.91;5036140;28;1084;-51
2024/04/02 02:23:46;;;;;;;;;;;;;;;15.99;45.75;100020.47;5035416;28;1103;-49
2024/04/02 02:26:12;;;;;;;;;;;;;;;15.87;45.37;100023.16;5036044;28;1182;-50
2024/04/02 02:28:37;;;;;;;;;;;;;;;17.42;46.00;100023.56;5035549;28;1131;-51
2024/04/02 02:31:03;;;;;;;;;;;;;;;16.47;47.01;100020.97;5035739;28;1084;-52
2024/04/02 02:33:28;;;;;;;;;;;;;;;16.21;46.63;100031.97;5035575;28;1906;-50
2024/04/02 02:35:54;;;;;;;;;;;;;;;16.13;46.21;100025.47;5035663;28;1207;-53
2024/04/02 02:38:19;;;;;;;;;;;;;;;17.22;46.65;100027.97;5035637;28;1211;-51
2024/04/02 02:40:45;;;;;;;;;;;;;;;16.40;47.32;100029.47;5036002;28;1179;-51
2024/04/02 02:43:10;;;;;;;;;;;;;;;16.25;46.45;100020.13;5035099;28;1141;-51
2024/04/02 02:45:36;;;;;;;;;;;;;;;16.07;46.04;100026.00;5035993;28;1067;-50
2024/04/02 02:48:03;;;;;;;;;;;;;;;16.00;45.29;100017.69;5036050;28;1326;-51
2024/04/02 02:50:28;;;;;;;;;;;;;;;16.58;46.63;100022.75;5036423;28;1041;-50
2024/04/02 02:52:56;;;;;;;;;;;;;;;16.66;46.85;100017.63;5035957;28;1227;-50
2024/04/02 02:55:21;;;;;;;;;;;;;;;16.18;46.79;100018.97;5035409;28;1905;-49
2024/04/02 02:57:47;;;;;;;;;;;;;;;16.06;46.27;100010.22;5036198;28;1136;-50
2024/04/02 03:00:12;;;;;;;;;;;;;;;15.96;45.44;100010.94;5035999;28;1004;-47
2024/04/02 03:02:38;;;;;;;;;;;;;;;15.90;45.29;100014.94;5037382;28;1119;-51
2024/04/02 03:05:03;;;;;;;;;;;;;;;17.36;45.87;100006.34;5039396;28;1075;-52
2024/04/02 03:07:29;;;;;;;;;;;;;;;16.47;46.68;100013.88;5039242;28;1102;-52
2024/04/02 03:09:55;;;;;;;;;;;;;;;16.15;46.54;100010.28;5043336;28;1181;-53
2024/04/02 03:12:20;;;;;;;;;;;;;;;16.06;45.74;100012.88;5047945;28;1146;-54
2024/04/02 03:14:46;;;;;;;;;;;;;;;15.99;45.44;100021.34;5039242;28;2011;-52
2024/04/02 03:17:11;;;;;;;;;;;;;;;17.10;46.38;100014.78;5025981;28;1326;-57
2024/04/02 03:19:36;;;;;;;;;;;;;;;16.68;47.30;100015.69;5039848;28;1192;-53
2024/04/02 03:22:02;;;;;;;;;;;;;;;16.22;46.76;100007.97;5042319;28;1139;-56
2024/04/02 03:24:27;;;;;;;;;;;;;;;16.06;46.40;100011.06;5032730;28;1369;-54
2024/04/02 03:26:53;;;;;;;;;;;;;;;17.03;46.60;100005.66;5035019;28;1127;-54
2024/04/02 03:29:18;;;;;;;;;;;;;;;16.37;47.03;100003.19;5032114;28;1356;-57
2024/04/02 03:31:46;;;;;;;;;;;;;;;16.24;46.25;99989.25;5034404;28;1126;-57
2024/04/02 03:34:12;;;;;;;;;;;;;;;16.32;46.82;99991.25;5028665;28;2055;-52
2024/04/02 03:36:37;;;;;;;;;;;;;;;17.11;46.54;99997.03;5041838;28;1337;-54
2024/04/02 03:39:03;;;;;;;;;;;;;;;16.34;47.25;99984.00;5047290;28;1003;-55
2024/04/02 03:41:28;;;;;;;;;;;;;;;16.19;46.65;99979.03;5038295;28;1008;-55
2024/04/02 03:43:54;;;;;;;;;;;;;;;16.14;45.44;99992.69;5037885;28;2509;-56
2024/04/02 03:46:19;;;;;;;;;;;;;;;17.18;46.66;99990.22;5038192;28;1270;-58
2024/04/02 03:48:48;;;;;;;;;;;;;;;16.57;47.10;99984.72;5038365;28;1013;-56
2024/04/02 03:51:15;;;;;;;;;;;;;;;16.23;46.90;99980.44;5038028;28;1024;-54
2024/04/02 03:53:40;;;;;;;;;;;;;;;16.11;46.03;99973.53;5044316;28;1905;-54
2024/04/02 03:56:06;;;;;;;;;;;;;;;15.90;45.70;99974.28;5039171;28;1060;-58
2024/04/02 03:58:31;;;;;;;;;;;;;;;15.87;45.22;99972.75;5042134;28;1256;-51
2024/04/02 04:00:57;;;;;;;;;;;;;;;17.01;45.91;99978.34;5039355;28;1374;-56
2024/04/02 04:03:23;;;;;;;;;;;;;;;16.22;46.57;99981.44;5038059;28;1023;-56
2024/04/02 04:05:56;;;;;;;;;;;;;;;16.10;45.92;99975.34;5037624;28;1024;-52
2024/04/02 04:08:21;;;;;;;;;;;;;;;17.40;44.28;99964.34;5020013;28;1109;-55
2024/04/02 04:10:47;;;;;;;;;;;;;;;17.22;44.44;99964.19;5038056;28;1131;-53
2024/04/02 04:13:12;;;;;;;;;;;;;;;17.01;45.03;99965.06;5037273;28;1039;-56
2024/04/02 04:15:38;;;;;;;;;;;;;;;16.87;45.42;99979.53;5037130;28;2678;-54
2024/04/02 04:18:03;;;;;;;;;;;;;;;16.73;46.06;99978.09;5037568;28;1055;-54
2024/04/02 04:20:30;;;;;;;;;;;;;;;16.59;46.48;99985.44;5037429;28;849;-54
2024/04/02 04:22:56;;;;;;;;;;;;;;;16.54;46.71;99992.94;5038084;28;1003;-56
2024/04/02 04:25:22;;;;;;;;;;;;;;;16.40;46.94;99991.44;5037613;28;1145;-53
2024/04/02 04:27:47;;;;;;;;;;;;;;;16.38;47.24;99996.06;5037550;28;1150;-57
2024/04/02 04:30:13;;;;;;;;;;;;;;;16.27;47.85;99984.53;5037317;28;904;-56
2024/04/02 04:32:39;;;;;;;;;;;;;;;16.21;47.71;99981.56;5037213;28;1043;-52
2024/04/02 04:35:04;;;;;;;;;;;;;;;16.10;48.15;99998.38;5042317;28;1984;-57
2024/04/02 04:37:30;;;;;;;;;;;;;;;16.04;48.46;99983.81;5040131;28;1317;-49
2024/04/02 04:39:56;;;;;;;;;;;;;;;15.98;48.51;99990.44;5048821;28;1159;-49
2024/04/02 04:42:23;;;;;;;;;;;;;;;16.61;47.22;99972.03;5038853;28;1086;-56
2024/04/02 04:44:48;;;;;;;;;;;;;;;17.57;45.14;99984.13;5032324;28;1298;-49
2024/04/02 04:47:14;;;;;;;;;;;;;;;16.86;46.71;99967.25;5029444;28;1067;-49
2024/04/02 04:49:39;;;;;;;;;;;;;;;16.49;47.68;99965.94;5035238;28;1068;-56
2024/04/02 04:52:05;;;;;;;;;;;;;;;16.34;48.17;99971.59;5029582;28;1119;-53
2024/04/02 04:54:30;;;;;;;;;;;;;;;16.18;48.59;99973.84;5037561;28;1975;-54
2024/04/02 04:56:56;;;;;;;;;;;;;;;16.14;48.86;99960.84;5019166;28;1171;-48
2024/04/02 04:59:22;;;;;;;;;;;;;;;16.03;48.86;99956.44;5037274;28;1122;-55
2024/04/02 05:01:47;;;;;;;;;;;;;;;17.34;46.26;99956.94;5036825;28;1071;-54
2024/04/02 05:04:13;;;;;;;;;;;;;;;17.27;46.31;99948.66;5036216;28;1135;-50
2024/04/02 05:06:42;;;;;;;;;;;;;;;16.84;47.34;99946.13;5037052;28;1106;-53
2024/04/02 05:09:08;;;;;;;;;;;;;;;16.54;48.10;99955.78;5036133;28;1110;-52
2024/04/02 05:11:35;;;;;;;;;;;;;;;16.32;48.63;99946.13;5037172;28;1016;-52
2024/04/02 05:14:00;;;;;;;;;;;;;;;16.28;48.80;99951.72;5036920;28;1980;-55
2024/04/02 05:16:27;;;;;;;;;;;;;;;16.21;48.72;99949.72;5036975;28;1056;-51
2024/04/02 05:18:53;;;;;;;;;;;;;;;16.06;49.21;99947.38;5052034;28;1111;-54
2024/04/02 05:21:18;;;;;;;;;;;;;;;17.07;47.59;99942.41;5036725;28;904;-50
2024/04/02 05:23:44;;;;;;;;;;;;;;;17.35;46.54;99940.03;5036915;28;1078;-54
2024/04/02 05:26:09;;;;;;;;;;;;;;;16.67;48.13;99930.81;5036755;28;1068;-52
2024/04/02 05:28:35;;;;;;;;;;;;;;;16.47;48.70;99931.56;5036652;28;1084;-51
2024/04/02 05:31:00;;;;;;;;;;;;;;;16.34;49.34;99930.94;5036572;28;1183;-52
2024/04/02 05:33:26;;;;;;;;;;;;;;;16.23;49.14;99922.06;5036150;28;1980;-49
2024/04/02 05:35:52;;;;;;;;;;;;;;;16.15;49.29;99921.88;5036487;28;1142;-49
2024/04/02 05:38:17;;;;;;;;;;;;;;;16.88;48.30;99918.31;5036574;28;1028;-52
2024/04/02 05:40:43;;;;;;;;;;;;;;;17.48;46.73;99913.16;5036431;28;1032;-54
2024/04/02 05:43:08;;;;;;;;;;;;;;;16.81;48.26;99917.19;5036423;28;1071;-51
2024/04/02 05:45:34;;;;;;;;;;;;;;;16.60;48.73;99906.63;5036344;28;841;-53
2024/04/02 05:48:00;;;;;;;;;;;;;;;16.69;49.54;99908.47;5036461;28;1060;-49
2024/04/02 05:50:25;;;;;;;;;;;;;;;17.56;47.58;99900.00;5036065;28;1071;-52
2024/04/02 05:52:51;;;;;;;;;;;;;;;17.56;47.51;99907.16;5036624;28;1083;-55
2024/04/02 05:55:17;;;;;;;;;;;;;;;17.32;47.89;99898.59;5036551;28;1914;-54
2024/04/02 05:57:42;;;;;;;;;;;;;;;16.45;49.67;99906.13;5035882;28;909;-50
2024/04/02 06:00:10;;;;;;;;;;;;;;;16.18;50.39;99899.56;5035738;28;1047;-53
2024/04/02 06:02:39;;;;;;;;;;;;;;;16.08;50.25;99902.16;5036510;28;1194;-51
2024/04/02 06:05:04;;;;;;;;;;;;;;;16.07;50.69;99911.91;5018882;28;1187;-52
2024/04/02 06:07:30;;;;;;;;;;;;;;;17.07;49.07;99905.22;5036634;28;1075;-51
2024/04/02 06:09:55;;;;;;;;;;;;;;;18.25;46.33;99901.75;5035914;28;953;-56
2024/04/02 06:12:21;;;;;;;;;;;;;;;18.02;46.83;99909.22;5051770;28;1059;-56
2024/04/02 06:14:47;;;;;;;;;;;;;;;17.74;47.42;99913.44;5036292;28;1910;-57
2024/04/02 06:17:12;;;;;;;;;;;;;;;17.68;47.25;99902.53;5036422;28;1219;-53
2024/04/02 06:19:37;;;;;;;;;;;;;;;17.22;48.04;99908.34;5036227;28;1170;-52
2024/04/02 06:22:03;;;;;;;;;;;;;;;16.56;50.28;99910.50;5035852;28;892;-51
2024/04/02 06:24:29;;;;;;;;;;;;;;;16.38;50.36;99900.50;5036181;28;1079;-56
2024/04/02 06:26:54;;;;;;;;;;;;;;;16.28;50.71;99898.63;5036445;28;1064;-53
2024/04/02 06:29:20;;;;;;;;;;;;;;;16.21;50.58;99891.34;5036382;28;1155;-52
2024/04/02 06:31:45;;;;;;;;;;;;;;;16.13;50.65;99895.47;5035978;28;1100;-54
2024/04/02 06:34:11;;;;;;;;;;;;;;;16.46;49.89;99890.06;5036234;28;1913;-53
2024/04/02 06:36:36;;;;;;;;;;;;;;;16.13;50.88;99868.13;5036191;28;1175;-53
2024/04/02 06:39:02;;;;;;;;;;;;;;;15.98;50.89;99872.88;5040466;28;1076;-49
2024/04/02 06:41:28;;;;;;;;;;;;;;;15.99;51.25;99875.44;5039578;28;1055;-51
2024/04/02 06:43:54;;;;;;;;;;;;;;;16.71;50.30;99881.78;5039876;28;1218;-50
2024/04/02 06:46:19;;;;;;;;;;;;;;;17.71;48.15;99884.47;5039810;28;1015;-52
2024/04/02 06:48:45;;;;;;;;;;;;;;;16.96;49.77;99896.41;5039969;28;1122;-50
2024/04/02 06:51:13;;;;;;;;;;;;;;;16.62;50.61;99886.06;5039408;28;1067;-48
2024/04/02 06:53:39;;;;;;;;;;;;;;;16.45;51.08;99891.03;5039892;28;1971;-50
2024/04/02 06:56:05;;;;;;;;;;;;;;;16.36;51.12;99886.53;5021312;28;1048;-53
2024/04/02 06:58:30;;;;;;;;;;;;;;;16.27;51.28;99891.66;5039708;28;1104;-52
2024/04/02 07:00:56;;;;;;;;;;;;;;;16.17;51.11;99888.09;5039396;28;1163;-54
2024/04/02 07:03:22;;;;;;;;;;;;;;;16.07;51.56;99881.88;5039823;28;1203;-51
2024/04/02 07:05:48;;;;;;;;;;;;;;;15.99;51.79;99883.38;5039364;28;1226;-49
2024/04/02 07:08:14;;;;;;;;;;;;;;;16.09;51.81;99898.50;5039227;28;1040;-51
2024/04/02 07:10:40;;;;;;;;;;;;;;;17.55;48.97;99903.63;5039193;28;1146;-53
2024/04/02 07:13:05;;;;;;;;;;;;;;;17.07;49.83;99905.22;5039242;28;1148;-51
2024/04/02 07:15:31;;;;;;;;;;;;;;;16.67;50.52;99905.09;5038990;28;1981;-49
2024/04/02 07:17:56;;;;;;;;;;;;;;;16.52;51.11;99909.94;5039302;28;1059;-53
2024/04/02 07:20:22;;;;;;;;;;;;;;;16.34;51.29;99901.72;5039202;28;1151;-49
2024/04/02 07:22:48;;;;;;;;;;;;;;;16.25;51.32;99898.91;5038862;28;905;-48
2024/04/02 07:25:14;;;;;;;;;;;;;;;16.16;51.45;99879.28;5038943;28;1071;-48
2024/04/02 07:27:40;;;;;;;;;;;;;;;16.12;51.65;99880.53;5038930;28;1195;-45
2024/04/02 07:30:06;;;;;;;;;;;;;;;16.08;51.60;99875.63;5039671;28;1072;-51
2024/04/02 07:32:32;;;;;;;;;;;;;;;17.22;49.69;99877.31;5038359;28;1443;-52
2024/04/02 07:34:57;;;;;;;;;;;;;;;17.20;49.40;99876.59;5038749;28;1989;-53
2024/04/02 07:37:29;;;;;;;;;;;;;;;16.74;50.80;99881.50;5039021;28;1220;-52
2024/04/02 07:39:54;;;;;;;;;;;;;;;16.47;51.14;99878.47;5038761;28;1087;-53
2024/04/02 07:42:20;;;;;;;;;;;;;;;16.43;51.41;99885.03;5039092;28;1069;-51
2024/04/02 07:44:45;;;;;;;;;;;;;;;16.26;51.64;99879.38;5038480;28;1148;-56
2024/04/02 07:47:11;;;;;;;;;;;;;;;16.16;51.70;99873.97;5038514;28;1031;-53
2024/04/02 07:49:37;;;;;;;;;;;;;;;16.16;51.41;99876.63;5037572;28;1202;-53
2024/04/02 07:52:02;;;;;;;;;;;;;;;16.11;51.56;99878.88;5039092;28;1133;-51
2024/04/02 07:54:28;;;;;;;;;;;;;;;16.10;51.46;99876.34;5020606;28;1914;-51
2024/04/02 07:56:53;;;;;;;;;;;;;;;16.05;51.67;99876.72;5038130;28;1223;-50
2024/04/02 07:59:20;;;;;;;;;;;;;;;16.00;51.66;99868.28;5038848;28;1143;-53
2024/04/02 08:01:45;;;;;;;;;;;;;;;15.97;51.93;99864.06;5038324;28;1047;-52
2024/04/02 08:04:11;;;;;;;;;;;;;;;17.01;50.28;99859.63;5019950;28;1091;-50
2024/04/02 08:06:36;;;;;;;;;;;;;;;17.48;49.09;99871.44;5038666;28;1135;-52
2024/04/02 08:09:02;;;;;;;;;;;;;;;16.83;50.37;99863.94;5038231;28;1219;-50
2024/04/02 08:11:28;;;;;;;;;;;;;;;16.61;51.21;99874.63;5038174;28;1148;-45
2024/04/02 08:13:53;;;;;;;;;;;;;;;16.42;51.57;99867.41;5037785;28;1902;-48
2024/04/02 08:16:19;;;;;;;;;;;;;;;16.39;51.54;99865.03;5038022;28;1175;-47
2024/04/02 08:18:44;;;;;;;;;;;;;;;16.26;51.63;99863.44;5038007;28;1215;-50
2024/04/02 08:21:10;;;;;;;;;;;;;;;16.21;51.72;99852.38;5038096;28;1063;-52
2024/04/02 08:23:35;;;;;;;;;;;;;;;16.19;51.36;99850.81;5037712;28;1102;-52
2024/04/02 08:26:01;;;;;;;;;;;;;;;16.09;51.89;99840.16;5037578;28;1204;-49
2024/04/02 08:28:27;;;;;;;;;;;;;;;16.06;51.62;99816.53;5037788;28;1429;-53
2024/04/02 08:30:52;;;;;;;;;;;;;;;16.81;50.98;99836.66;5037896;28;1181;-53
2024/04/02 08:33:18;;;;;;;;;;;;;;;17.63;48.70;99820.50;5020111;28;1194;-53
2024/04/02 08:35:48;;;;;;;;;;;;;;;16.92;50.26;99804.66;5037656;28;1987;-55
2024/04/02 08:38:13;;;;;;;;;;;;;;;16.66;50.86;99799.88;5037841;28;1142;-51
2024/04/02 08:40:39;;;;;;;;;;;;;;;16.50;51.59;99806.53;5038175;28;1076;-51
2024/04/02 08:43:05;;;;;;;;;;;;;;;16.38;51.48;99802.31;5037527;28;1071;-50
2024/04/02 08:45:32;;;;;;;;;;;;;;;16.28;51.71;99797.78;5037064;28;1114;-54
2024/04/02 08:47:57;;;;;;;;;;;;;;;16.27;51.60;99796.13;5037485;28;1086;-50
2024/04/02 08:50:23;;;;;;;;;;;;;;;16.23;51.79;99793.88;5037641;28;1040;-48
2024/04/02 08:52:51;;;;;;;;;;;;;;;16.15;52.04;99803.31;5037839;28;1118;-49
2024/04/02 08:55:19;;;;;;;;;;;;;;;16.17;51.94;99803.19;5037233;28;1906;-49
2024/04/02 08:57:46;;;;;;;;;;;;;;;16.10;51.70;99794.09;5037597;28;1059;-46
2024/04/02 09:00:12;;;;;;;;;;;;;;;16.06;52.03;99797.97;5019164;28;1102;-48
2024/04/02 09:02:38;;;;;;;;;;;;;;;16.06;51.89;99787.34;5019928;28;1079;-49
2024/04/02 09:05:04;;;;;;;;;;;;;;;16.44;51.42;99785.84;5019677;28;1079;-49
2024/04/02 09:07:29;;;;;;;;;;;;;;;17.49;49.26;99788.06;5037288;28;1036;-53
2024/04/02 09:09:55;;;;;;;;;;;;;;;16.84;50.59;99780.59;5036661;28;1092;-52
2024/04/02 09:12:20;;;;;;;;;;;;;;;16.62;51.14;99772.75;5037033;28;1222;-53
2024/04/02 09:14:46;;;;;;;;;;;;;;;16.44;51.61;99758.44;5037288;28;1921;-53
2024/04/02 09:17:12;;;;;;;;;;;;;;;16.43;51.41;99749.66;5036786;28;1079;-54
2024/04/02 09:19:37;;;;;;;;;;;;;;;16.34;51.71;99707.97;5037227;28;1083;-52
2024/04/02 09:22:04;;;;;;;;;;;;;;;16.30;51.68;99736.59;5036809;28;1104;-53
2024/04/02 09:24:29;;;;;;;;;;;;;;;16.26;51.77;99736.06;5037684;28;1107;-51
2024/04/02 09:26:55;;;;;;;;;;;;;;;16.23;51.77;99735.47;5037272;28;1043;-53
2024/04/02 09:29:20;;;;;;;;;;;;;;;16.14;51.83;99719.41;5037372;28;1052;-51
2024/04/02 09:31:46;;;;;;;;;;;;;;;16.11;51.75;99727.63;5036823;28;1170;-49
2024/04/02 09:34:13;;;;;;;;;;;;;;;16.08;51.76;99722.56;5018760;28;1906;-51
2024/04/02 09:36:40;;;;;;;;;;;;;;;16.05;51.98;99725.50;5036337;28;1232;-49
2024/04/02 09:39:09;;;;;;;;;;;;;;;16.05;51.60;99717.53;5036906;28;1219;-48
2024/04/02 09:41:44;;;;;;;;;;;;;;;16.05;51.63;99717.53;5036953;28;1135;-53
2024/04/02 09:44:14;;;;;;;;;;;;;;;17.03;50.27;99710.72;5037164;28;1047;-47
2024/04/02 09:46:40;;;;;;;;;;;;;;;18.13;47.13;99701.50;5036028;28;1528;-56
2024/04/02 09:49:09;;;;;;;;;;;;;;;16.98;50.03;99702.31;5039946;28;1024;-52
2024/04/02 09:51:35;;;;;;;;;;;;;;;16.67;50.67;99705.09;5036608;28;1033;-49
2024/04/02 09:54:01;;;;;;;;;;;;;;;16.57;51.13;99705.06;5048188;28;1963;-55
2024/04/02 09:56:27;;;;;;;;;;;;;;;16.52;51.00;99710.81;5035459;28;1220;-58
2024/04/02 09:58:53;;;;;;;;;;;;;;;16.42;51.39;99704.63;5051220;28;1210;-57
2024/04/02 10:01:24;;;;;;;;;;;;;;;16.37;51.41;99703.25;5025349;28;1381;-58
2024/04/02 10:03:50;;;;;;;;;;;;;;;16.33;51.34;99693.03;5042738;28;884;-55
2024/04/02 10:06:15;;;;;;;;;;;;;;;16.25;51.60;99689.25;5035747;28;1235;-54
2024/04/02 10:08:40;;;;;;;;;;;;;;;16.38;51.27;99694.28;5035807;28;1056;-56
2024/04/02 10:11:08;;;;;;;;;;;;;;;16.20;51.51;99683.50;5035221;28;1056;-53
2024/04/02 10:13:34;;;;;;;;;;;;;;;16.22;51.66;99688.69;5035102;28;1979;-51
2024/04/02 10:16:00;;;;;;;;;;;;;;;16.13;51.89;99679.75;5036154;28;1040;-48
2024/04/02 10:18:26;;;;;;;;;;;;;;;16.13;51.76;99688.50;5035510;28;1059;-49
2024/04/02 10:20:56;;;;;;;;;;;;;;;16.10;51.58;99686.13;5035843;28;1131;-47
2024/04/02 10:23:22;;;;;;;;;;;;;;;16.11;51.47;99679.03;5034711;28;924;-50
2024/04/02 10:25:47;;;;;;;;;;;;;;;16.03;51.62;99693.78;5035982;28;1080;-48
2024/04/02 10:28:13;;;;;;;;;;;;;;;16.05;51.54;99698.97;5035016;28;999;-49
2024/04/02 10:30:43;;;;;;;;;;;;;;;16.21;51.42;99697.63;5029169;28;1051;-47
2024/04/02 10:33:14;;;;;;;;;;;;;;;17.68;48.85;99682.63;5017316;28;1032;-50
2024/04/02 10:35:40;;;;;;;;;;;;;;;17.25;49.33;99696.28;5012359;28;1910;-57
2024/04/02 10:38:05;;;;;;;;;;;;;;;16.84;50.66;99692.94;5034165;28;1027;-50
2024/04/02 10:40:31;;;;;;;;;;;;;;;16.70;50.75;99672.97;5033290;28;1099;-58
2024/04/02 10:42:57;;;;;;;;;;;;;;;16.69;50.74;99754.44;5028146;28;1365;-50
2024/04/02 10:45:22;;;;;;;;;;;;;;;16.57;51.16;99753.72;5029944;28;1334;-52
2024/04/02 10:47:48;;;;;;;;;;;;;;;16.45;51.68;99752.16;5037201;28;1096;-54
2024/04/02 10:50:14;;;;;;;;;;;;;;;16.39;51.43;99751.72;5030907;28;1325;-54
2024/04/02 10:52:39;;;;;;;;;;;;;;;16.31;51.77;99756.88;5031305;28;1198;-57
2024/04/02 10:55:05;;;;;;;;;;;;;;;16.30;51.81;99752.53;5034627;28;1910;-46
2024/04/02 10:57:32;;;;;;;;;;;;;;;16.23;51.96;99768.16;5035777;28;1184;-54
2024/04/02 10:59:58;;;;;;;;;;;;;;;16.22;51.72;99771.78;5034581;28;1076;-52
2024/04/02 11:02:23;;;;;;;;;;;;;;;16.12;52.22;99766.44;5024087;28;1039;-49
2024/04/02 11:04:49;;;;;;;;;;;;;;;16.12;51.90;99771.75;5030954;28;1286;-53
2024/04/02 11:07:14;;;;;;;;;;;;;;;16.08;52.21;99782.75;5026253;28;1134;-51
2024/04/02 11:09:40;;;;;;;;;;;;;;;16.01;51.99;99793.91;5035655;28;1127;-52
2024/04/02 11:12:06;;;;;;;;;;;;;;;16.21;52.19;99801.09;5033367;28;1239;-47
2024/04/02 11:14:32;;;;;;;;;;;;;;;17.58;49.97;99793.50;5034954;28;1967;-51
2024/04/02 11:16:58;;;;;;;;;;;;;;;16.98;50.90;99793.47;5067433;28;1231;-54
2024/04/02 11:19:23;;;;;;;;;;;;;;;16.62;51.99;99793.13;5034379;28;1169;-51
2024/04/02 11:24:57;;;;;;;;;;;;;;;16.52;52.27;99798.41;5035159;28;1187;-51
2024/04/02 11:27:23;;;;;;;;;;;;;;;16.32;52.24;99824.91;5033183;28;1041;-46
2024/04/02 11:29:48;;;;;;;;;;;;;;;16.26;52.44;99813.03;5034379;28;1298;-48
2024/04/02 11:32:14;;;;;;;;;;;;;;;16.21;52.68;99825.00;5038775;28;1079;-49
2024/04/02 11:34:39;;;;;;;;;;;;;;;16.22;52.40;99819.56;5038598;28;1980;-48
2024/04/02 11:37:05;;;;;;;;;;;;;;;16.14;52.67;99814.06;5043350;28;997;-51
2024/04/02 11:39:30;;;;;;;;;;;;;;;16.10;52.62;99816.13;5043912;28;1133;-52
2024/04/02 11:41:56;;;;;;;;;;;;;;;16.09;52.29;99818.94;5036067;28;1203;-50
2024/04/02 11:44:21;;;;;;;;;;;;;;;16.05;52.62;99813.03;5030979;28;1167;-46
2024/04/02 11:46:48;;;;;;;;;;;;;;;16.01;52.35;99804.53;5032019;28;1008;-50
2024/04/02 11:49:14;;;;;;;;;;;;;;;16.07;52.45;99810.25;5031121;28;1047;-49
2024/04/02 11:51:39;;;;;;;;;;;;;;;16.88;51.73;99819.19;5038161;28;1024;-50
2024/04/02 11:54:05;;;;;;;;;;;;;;;17.41;50.49;99817.16;5032517;28;1902;-48
2024/04/02 12:00:06;;;;;;;;;;;;;;;16.84;51.76;99820.44;5038622;28;1075;-50
2024/04/02 12:02:00;;;;;;;;;;;;;;;16.36;52.48;99828.97;5022642;28;1056;-46
2024/04/02 12:04:26;;;;;;;;;;;;;;;16.37;52.39;99821.84;5033699;28;1118;-56
2024/04/02 12:06:55;;;;;;;;;;;;;;;16.25;52.60;99832.56;5031055;28;1353;-51
2024/04/02 12:09:21;;;;;;;;;;;;;;;16.18;52.91;99849.16;5037666;28;1410;-54
2024/04/02 12:11:46;;;;;;;;;;;;;;;16.18;52.51;99827.91;5038136;28;1138;-54
2024/04/02 12:14:12;;;;;;;;;;;;;;;16.11;52.55;99833.75;5037539;28;1966;-49
2024/04/02 12:16:37;;;;;;;;;;;;;;;16.05;52.59;99828.94;5038619;28;1206;-48
2024/04/02 12:19:03;;;;;;;;;;;;;;;16.01;52.48;99809.84;5019983;28;1107;-48
2024/04/02 12:21:28;;;;;;;;;;;;;;;17.21;51.50;99827.81;5030686;28;1134;-49
2024/04/02 12:23:54;;;;;;;;;;;;;;;17.43;50.69;99836.47;5037747;28;1078;-47
2024/04/02 12:26:19;;;;;;;;;;;;;;;16.88;51.97;99841.28;5038109;28;1158;-46
2024/04/02 12:28:45;;;;;;;;;;;;;;;16.60;52.47;99835.75;5037898;28;1075;-48
2024/04/02 12:31:10;;;;;;;;;;;;;;;16.51;52.60;99818.84;5038250;28;1112;-49
2024/04/02 12:33:37;;;;;;;;;;;;;;;16.37;52.59;99825.34;5037234;28;1218;-55
2024/04/02 12:36:03;;;;;;;;;;;;;;;16.33;52.54;99826.56;5022713;28;1164;-49
2024/04/02 12:38:29;;;;;;;;;;;;;;;16.27;52.60;99824.44;5038043;28;1106;-49
2024/04/02 12:40:54;;;;;;;;;;;;;;;16.22;52.69;99822.19;5033120;28;1146;-50
2024/04/02 12:43:20;;;;;;;;;;;;;;;16.20;52.58;99829.44;5026560;28;1083;-51
2024/04/02 12:45:52;;;;;;;;;;;;;;;16.13;52.57;99829.13;5035155;28;1396;-45
2024/04/02 12:48:17;;;;;;;;;;;;;;;16.12;52.54;99824.81;5035819;28;1048;-53
2024/04/02 12:50:50;;;;;;;;;;;;;;;16.07;52.37;99834.13;5019847;28;1120;-55
2024/04/02 12:53:16;;;;;;;;;;;;;;;16.15;53.05;99823.69;5036643;28;1060;-53